Time,TemperatureF,DewpointF,PressureIn,WindDirection,WindDirectionDegrees,WindSpeedMPH,WindSpeedGustMPH,Humidity,HourlyPrecipIn,Conditions,Clouds,dailyrainin,SolarRadiationWatts/m^2,SoftwareType,DateUTC
2013-05-19 00:00:00,60.0,58.0,-100.00,ESE,112,1.0,-999.0,93,-99.99,,,-99.99,0.000000,,2013-05-19 04:00:00,
2013-05-19 00:42:00,60.0,58.0,-100.00,ESE,112,1.0,-999.0,93,-99.99,,,-99.99,0.000000,,2013-05-19 04:42:00,
2013-05-19 00:53:00,60.0,58.0,-100.00,ESE,112,1.0,-999.0,93,-99.99,,,-99.99,0.000000,,2013-05-19 04:53:00,
2013-05-19 01:00:00,63.0,60.0,-100.00,ESE,112,1.0,-999.0,87,-99.99,,,-99.99,0.000000,,2013-05-19 05:00:00,
2013-05-19 01:42:00,63.0,60.0,-100.00,ESE,112,1.0,-999.0,87,-99.99,,,-99.99,0.000000,,2013-05-19 05:42:00,
2013-05-19 01:52:00,63.0,60.0,-100.00,ESE,112,1.0,-999.0,87,-99.99,,,-99.99,0.000000,,2013-05-19 05:52:00,
2013-05-19 02:00:00,66.0,55.0,-100.00,SE,135,3.0,-999.0,69,-99.99,,,-99.99,0.000000,,2013-05-19 06:00:00,
2013-05-19 02:42:00,66.0,55.0,-100.00,SE,135,3.0,-999.0,69,-99.99,,,-99.99,0.000000,,2013-05-19 06:42:00,
2013-05-19 02:52:00,66.0,55.0,-100.00,SE,135,3.0,-999.0,69,-99.99,,,-99.99,0.000000,,2013-05-19 06:52:00,
2013-05-19 03:00:00,63.0,53.0,-100.00,ESE,112,2.0,-999.0,71,-99.99,,,-99.99,0.000000,,2013-05-19 07:00:00,
2013-05-19 03:42:00,63.0,53.0,-100.00,ESE,112,2.0,-999.0,71,-99.99,,,-99.99,0.000000,,2013-05-19 07:42:00,
2013-05-19 03:52:00,63.0,53.0,-100.00,ESE,112,2.0,-999.0,71,-99.99,,,-99.99,0.000000,,2013-05-19 07:52:00,
2013-05-19 04:00:00,60.0,52.0,-100.00,ESE,112,1.0,-999.0,73,-99.99,,,-99.99,0.000000,,2013-05-19 08:00:00,
2013-05-19 04:42:00,60.0,52.0,-100.00,ESE,112,1.0,-999.0,73,-99.99,,,-99.99,0.000000,,2013-05-19 08:42:00,
2013-05-19 04:52:00,60.0,52.0,-100.00,ESE,112,1.0,-999.0,73,-99.99,,,-99.99,0.000000,,2013-05-19 08:52:00,
2013-05-19 05:00:00,58.0,51.0,-100.00,ESE,112,1.0,-999.0,76,-99.99,,,-99.99,0.000000,,2013-05-19 09:00:00,
2013-05-19 05:43:00,58.0,51.0,-100.00,ESE,112,1.0,-999.0,76,-99.99,,,-99.99,0.000000,,2013-05-19 09:43:00,
2013-05-19 05:53:00,58.0,51.0,-100.00,ESE,112,1.0,-999.0,76,-99.99,,,-99.99,0.000000,,2013-05-19 09:53:00,
2013-05-19 06:00:00,56.0,50.0,-100.00,ESE,112,1.0,-999.0,81,-99.99,,,-99.99,0.000000,,2013-05-19 10:00:00,
2013-05-19 06:42:00,56.0,50.0,-100.00,ESE,112,1.0,-999.0,81,-99.99,,,-99.99,0.000000,,2013-05-19 10:42:00,
2013-05-19 06:53:00,56.0,50.0,-100.00,ESE,112,1.0,-999.0,81,-99.99,,,-99.99,0.000000,,2013-05-19 10:53:00,
2013-05-19 07:00:00,55.0,49.0,-100.00,ESE,112,1.0,-999.0,81,-99.99,,,-99.99,12.760000,,2013-05-19 11:00:00,
2013-05-19 07:42:00,55.0,49.0,-100.00,ESE,112,1.0,-999.0,81,-99.99,,,-99.99,12.760000,,2013-05-19 11:42:00,
2013-05-19 07:52:00,55.0,49.0,-100.00,ESE,112,1.0,-999.0,81,-99.99,,,-99.99,12.760000,,2013-05-19 11:52:00,
2013-05-19 08:00:00,59.0,50.0,-100.00,ESE,112,3.0,-999.0,71,-99.99,,,-99.99,113.680000,,2013-05-19 12:00:00,
2013-05-19 08:42:00,59.0,50.0,-100.00,ESE,112,3.0,-999.0,71,-99.99,,,-99.99,113.680000,,2013-05-19 12:42:00,
2013-05-19 08:52:00,59.0,50.0,-100.00,ESE,112,3.0,-999.0,71,-99.99,,,-99.99,113.680000,,2013-05-19 12:52:00,
2013-05-19 09:00:00,65.0,51.0,-100.00,SSE,157,3.0,-999.0,61,-99.99,,,-99.99,263.320007,,2013-05-19 13:00:00,
2013-05-19 09:42:00,65.0,51.0,-100.00,SSE,157,3.0,-999.0,61,-99.99,,,-99.99,263.320007,,2013-05-19 13:42:00,
2013-05-19 09:52:00,65.0,51.0,-100.00,SSE,157,3.0,-999.0,61,-99.99,,,-99.99,263.320007,,2013-05-19 13:52:00,
2013-05-19 11:00:00,75.0,56.0,-100.00,SSE,157,2.0,-999.0,52,-99.99,,,-99.99,534.760010,,2013-05-19 15:00:00,
2013-05-19 11:43:00,75.0,56.0,-100.00,SSE,157,2.0,-999.0,52,-99.99,,,-99.99,534.760010,,2013-05-19 15:43:00,
2013-05-19 11:53:00,75.0,56.0,-100.00,SSE,157,2.0,-999.0,52,-99.99,,,-99.99,534.760010,,2013-05-19 15:53:00,
2013-05-19 12:00:00,79.0,58.0,-100.00,SE,135,2.0,-999.0,49,-99.99,,,-99.99,671.640015,,2013-05-19 16:00:00,
2013-05-19 12:42:00,79.0,58.0,-100.00,SE,135,2.0,-999.0,49,-99.99,,,-99.99,671.640015,,2013-05-19 16:42:00,
2013-05-19 12:52:00,79.0,58.0,-100.00,SE,135,2.0,-999.0,49,-99.99,,,-99.99,671.640015,,2013-05-19 16:52:00,
2013-05-19 13:00:00,81.0,60.0,-100.00,SSE,157,3.0,-999.0,49,-99.99,,,-99.99,654.239990,,2013-05-19 17:00:00,
2013-05-19 13:43:00,81.0,60.0,-100.00,SSE,157,3.0,-999.0,49,-99.99,,,-99.99,654.239990,,2013-05-19 17:43:00,
2013-05-19 13:52:00,81.0,60.0,-100.00,SSE,157,3.0,-999.0,49,-99.99,,,-99.99,654.239990,,2013-05-19 17:52:00,
2013-05-19 14:00:00,82.0,59.0,-100.00,South,180,5.0,-999.0,45,-99.99,,,-99.99,526.640015,,2013-05-19 18:00:00,
2013-05-19 14:43:00,82.0,59.0,-100.00,South,180,5.0,-999.0,45,-99.99,,,-99.99,526.640015,,2013-05-19 18:43:00,
2013-05-19 14:53:00,82.0,59.0,-100.00,South,180,5.0,-999.0,45,-99.99,,,-99.99,526.640015,,2013-05-19 18:53:00,
2013-05-19 15:00:00,82.0,60.0,-100.00,SSW,202,5.0,-999.0,47,-99.99,,,-99.99,563.760010,,2013-05-19 19:00:00,
2013-05-19 15:42:00,82.0,60.0,-100.00,SSW,202,5.0,-999.0,47,-99.99,,,-99.99,563.760010,,2013-05-19 19:42:00,
2013-05-19 15:52:00,82.0,60.0,-100.00,SSW,202,5.0,-999.0,47,-99.99,,,-99.99,563.760010,,2013-05-19 19:52:00,
2013-05-19 16:00:00,85.0,58.0,-100.00,SE,135,6.0,-999.0,40,-99.99,,,-99.99,701.799988,,2013-05-19 20:00:00,
2013-05-19 16:42:00,85.0,58.0,-100.00,SE,135,6.0,-999.0,40,-99.99,,,-99.99,701.799988,,2013-05-19 20:42:00,
2013-05-19 16:52:00,85.0,58.0,-100.00,SE,135,6.0,-999.0,40,-99.99,,,-99.99,701.799988,,2013-05-19 20:52:00,
2013-05-19 17:00:00,86.0,58.0,-100.00,SSE,157,6.0,-999.0,37,-99.99,,,-99.99,585.799988,,2013-05-19 21:00:00,
2013-05-19 17:43:00,86.0,58.0,-100.00,SSE,157,6.0,-999.0,37,-99.99,,,-99.99,585.799988,,2013-05-19 21:43:00,
2013-05-19 17:53:00,86.0,58.0,-100.00,SSE,157,6.0,-999.0,37,-99.99,,,-99.99,585.799988,,2013-05-19 21:53:00,
2013-05-19 18:00:00,86.0,57.0,-100.00,SSE,157,7.0,-999.0,37,-99.99,,,-99.99,417.600006,,2013-05-19 22:00:00,
2013-05-19 18:42:00,86.0,57.0,-100.00,SSE,157,7.0,-999.0,37,-99.99,,,-99.99,417.600006,,2013-05-19 22:42:00,
2013-05-19 18:53:00,86.0,57.0,-100.00,SSE,157,7.0,-999.0,37,-99.99,,,-99.99,417.600006,,2013-05-19 22:53:00,
2013-05-19 20:00:00,83.0,58.0,-100.00,SE,135,6.0,-999.0,41,-99.99,,,-99.99,121.800003,,2013-05-20 00:00:00,
2013-05-19 20:42:00,83.0,58.0,-100.00,SE,135,6.0,-999.0,41,-99.99,,,-99.99,121.800003,,2013-05-20 00:42:00,
2013-05-19 20:52:00,83.0,58.0,-100.00,SE,135,6.0,-999.0,41,-99.99,,,-99.99,121.800003,,2013-05-20 00:52:00,
2013-05-19 21:00:00,80.0,59.0,-100.00,SSE,157,3.0,-999.0,48,-99.99,,,-99.99,17.400000,,2013-05-20 01:00:00,
2013-05-19 21:42:00,80.0,59.0,-100.00,SSE,157,3.0,-999.0,48,-99.99,,,-99.99,17.400000,,2013-05-20 01:42:00,
2013-05-19 21:52:00,80.0,59.0,-100.00,SSE,157,3.0,-999.0,48,-99.99,,,-99.99,17.400000,,2013-05-20 01:52:00,
2013-05-19 22:00:00,74.0,60.0,-100.00,SE,135,1.0,-999.0,61,-99.99,,,-99.99,0.000000,,2013-05-20 02:00:00,
2013-05-19 22:42:00,74.0,60.0,-100.00,SE,135,1.0,-999.0,61,-99.99,,,-99.99,0.000000,,2013-05-20 02:42:00,
2013-05-19 22:52:00,74.0,60.0,-100.00,SE,135,1.0,-999.0,61,-99.99,,,-99.99,0.000000,,2013-05-20 02:52:00,
2013-05-19 23:00:00,70.0,61.0,-100.00,SSE,157,1.0,-999.0,71,-99.99,,,-99.99,0.000000,,2013-05-20 03:00:00,
2013-05-19 23:43:00,70.0,61.0,-100.00,SSE,157,1.0,-999.0,71,-99.99,,,-99.99,0.000000,,2013-05-20 03:43:00,
2013-05-19 23:52:00,70.0,61.0,-100.00,SSE,157,1.0,-999.0,71,-99.99,,,-99.99,0.000000,,2013-05-20 03:52:00,